sensor_id;sensor_type;location;lat;lon;timestamp;P1;durP1;ratioP1;P2;durP2;ratioP2
29824;SDS011;16713;52.916;12.834;2022-11-23T00:01:24;69.72;;;31.60;;
29824;SDS011;16713;52.916;12.834;2022-11-23T00:03:57;68.82;;;29.83;;
29824;SDS011;16713;52.916;12.834;2022-11-23T00:06:25;70.38;;;30.60;;
29824;SDS011;16713;52.916;12.834;2022-11-23T00:08:52;68.28;;;30.98;;
29824;SDS011;16713;52.916;12.834;2022-11-23T00:11:20;75.95;;;33.25;;
29824;SDS011;16713;52.916;12.834;2022-11-23T00:13:48;69.30;;;31.50;;
29824;SDS011;16713;52.916;12.834;2022-11-23T00:16:15;77.60;;;32.72;;
29824;SDS011;16713;52.916;12.834;2022-11-23T00:18:44;71.20;;;31.65;;
29824;SDS011;16713;52.916;12.834;2022-11-23T00:21:12;67.00;;;29.88;;
29824;SDS011;16713;52.916;12.834;2022-11-23T00:23:40;70.88;;;30.92;;
29824;SDS011;16713;52.916;12.834;2022-11-23T00:26:06;67.75;;;31.45;;
29824;SDS011;16713;52.916;12.834;2022-11-23T00:28:33;73.60;;;31.15;;
29824;SDS011;16713;52.916;12.834;2022-11-23T00:31:04;75.88;;;31.98;;
29824;SDS011;16713;52.916;12.834;2022-11-23T00:33:31;75.68;;;32.38;;
29824;SDS011;16713;52.916;12.834;2022-11-23T00:36:02;68.10;;;30.48;;
29824;SDS011;16713;52.916;12.834;2022-11-23T00:38:33;68.82;;;31.00;;
29824;SDS011;16713;52.916;12.834;2022-11-23T00:41:03;75.97;;;32.42;;
29824;SDS011;16713;52.916;12.834;2022-11-23T00:43:36;66.00;;;29.23;;
29824;SDS011;16713;52.916;12.834;2022-11-23T00:46:03;68.03;;;32.13;;
29824;SDS011;16713;52.916;12.834;2022-11-23T00:48:35;74.00;;;32.15;;
29824;SDS011;16713;52.916;12.834;2022-11-23T00:51:03;65.00;;;30.05;;
29824;SDS011;16713;52.916;12.834;2022-11-23T00:53:32;64.05;;;28.92;;
29824;SDS011;16713;52.916;12.834;2022-11-23T00:55:59;71.38;;;32.17;;
29824;SDS011;16713;52.916;12.834;2022-11-23T00:58:25;64.68;;;32.17;;
29824;SDS011;16713;52.916;12.834;2022-11-23T01:01:06;61.42;;;30.63;;
29824;SDS011;16713;52.916;12.834;2022-11-23T01:03:35;65.47;;;30.60;;
29824;SDS011;16713;52.916;12.834;2022-11-23T01:06:10;66.82;;;30.38;;
29824;SDS011;16713;52.916;12.834;2022-11-23T01:08:41;62.60;;;28.85;;
29824;SDS011;16713;52.916;12.834;2022-11-23T01:11:10;68.88;;;28.92;;
29824;SDS011;16713;52.916;12.834;2022-11-23T01:13:38;61.22;;;28.83;;
29824;SDS011;16713;52.916;12.834;2022-11-23T01:16:07;65.05;;;30.05;;
29824;SDS011;16713;52.916;12.834;2022-11-23T01:18:38;68.15;;;29.63;;
29824;SDS011;16713;52.916;12.834;2022-11-23T01:21:04;64.32;;;27.40;;
29824;SDS011;16713;52.916;12.834;2022-11-23T01:23:31;72.10;;;29.88;;
29824;SDS011;16713;52.916;12.834;2022-11-23T01:26:02;70.68;;;29.77;;
29824;SDS011;16713;52.916;12.834;2022-11-23T01:28:30;67.13;;;31.13;;
29824;SDS011;16713;52.916;12.834;2022-11-23T01:31:11;75.25;;;33.15;;
29824;SDS011;16713;52.916;12.834;2022-11-23T01:33:40;59.38;;;28.58;;
29824;SDS011;16713;52.916;12.834;2022-11-23T01:36:17;68.97;;;30.42;;
29824;SDS011;16713;52.916;12.834;2022-11-23T01:38:45;60.58;;;29.23;;
29824;SDS011;16713;52.916;12.834;2022-11-23T01:41:14;69.47;;;31.60;;
29824;SDS011;16713;52.916;12.834;2022-11-23T01:43:42;61.35;;;30.00;;
29824;SDS011;16713;52.916;12.834;2022-11-23T01:46:09;75.00;;;30.98;;
29824;SDS011;16713;52.916;12.834;2022-11-23T01:51:13;70.82;;;30.67;;
29824;SDS011;16713;52.916;12.834;2022-11-23T01:53:42;65.05;;;29.50;;
29824;SDS011;16713;52.916;12.834;2022-11-23T01:56:10;63.40;;;28.88;;
29824;SDS011;16713;52.916;12.834;2022-11-23T01:58:41;70.35;;;30.95;;
29824;SDS011;16713;52.916;12.834;2022-11-23T02:01:11;65.30;;;29.83;;
29824;SDS011;16713;52.916;12.834;2022-11-23T02:03:39;63.78;;;30.23;;
29824;SDS011;16713;52.916;12.834;2022-11-23T02:06:10;63.47;;;30.63;;
29824;SDS011;16713;52.916;12.834;2022-11-23T02:08:41;62.33;;;29.42;;
29824;SDS011;16713;52.916;12.834;2022-11-23T02:11:09;68.85;;;30.40;;
29824;SDS011;16713;52.916;12.834;2022-11-23T02:13:38;66.05;;;30.02;;
29824;SDS011;16713;52.916;12.834;2022-11-23T02:16:04;63.63;;;30.08;;
29824;SDS011;16713;52.916;12.834;2022-11-23T02:18:31;65.18;;;30.23;;
29824;SDS011;16713;52.916;12.834;2022-11-23T02:21:00;66.32;;;29.85;;
29824;SDS011;16713;52.916;12.834;2022-11-23T02:31:41;60.28;;;27.95;;
29824;SDS011;16713;52.916;12.834;2022-11-23T02:34:07;69.85;;;30.48;;
29824;SDS011;16713;52.916;12.834;2022-11-23T02:39:13;61.13;;;29.70;;
29824;SDS011;16713;52.916;12.834;2022-11-23T02:41:45;68.55;;;32.20;;
29824;SDS011;16713;52.916;12.834;2022-11-23T02:44:24;63.63;;;30.33;;
29824;SDS011;16713;52.916;12.834;2022-11-23T02:47:09;65.05;;;28.80;;
29824;SDS011;16713;52.916;12.834;2022-11-23T02:49:37;62.40;;;27.27;;
29824;SDS011;16713;52.916;12.834;2022-11-23T02:52:05;70.75;;;30.60;;
29824;SDS011;16713;52.916;12.834;2022-11-23T02:54:33;62.30;;;27.88;;
29824;SDS011;16713;52.916;12.834;2022-11-23T02:57:00;58.47;;;27.98;;
29824;SDS011;16713;52.916;12.834;2022-11-23T02:59:26;60.60;;;27.42;;
29824;SDS011;16713;52.916;12.834;2022-11-23T03:01:54;63.40;;;28.98;;
29824;SDS011;16713;52.916;12.834;2022-11-23T03:04:21;68.63;;;29.80;;
29824;SDS011;16713;52.916;12.834;2022-11-23T03:06:53;57.25;;;28.98;;
29824;SDS011;16713;52.916;12.834;2022-11-23T03:09:19;67.68;;;31.13;;
29824;SDS011;16713;52.916;12.834;2022-11-23T03:11:45;64.32;;;28.33;;
29824;SDS011;16713;52.916;12.834;2022-11-23T03:14:12;66.43;;;29.30;;
29824;SDS011;16713;52.916;12.834;2022-11-23T03:16:38;59.75;;;29.08;;
29824;SDS011;16713;52.916;12.834;2022-11-23T03:19:05;64.65;;;28.92;;
29824;SDS011;16713;52.916;12.834;2022-11-23T03:21:31;64.28;;;30.73;;
29824;SDS011;16713;52.916;12.834;2022-11-23T03:23:58;61.35;;;28.80;;
29824;SDS011;16713;52.916;12.834;2022-11-23T03:26:24;70.38;;;30.95;;
29824;SDS011;16713;52.916;12.834;2022-11-23T03:28:50;66.90;;;30.63;;
29824;SDS011;16713;52.916;12.834;2022-11-23T03:31:17;60.40;;;27.98;;
29824;SDS011;16713;52.916;12.834;2022-11-23T03:33:43;62.92;;;28.08;;
29824;SDS011;16713;52.916;12.834;2022-11-23T03:36:10;66.15;;;28.55;;
29824;SDS011;16713;52.916;12.834;2022-11-23T03:38:36;64.13;;;29.85;;
29824;SDS011;16713;52.916;12.834;2022-11-23T03:41:02;67.28;;;29.17;;
29824;SDS011;16713;52.916;12.834;2022-11-23T03:43:29;67.90;;;29.35;;
29824;SDS011;16713;52.916;12.834;2022-11-23T03:45:55;62.33;;;28.85;;
29824;SDS011;16713;52.916;12.834;2022-11-23T03:48:22;62.05;;;28.60;;
29824;SDS011;16713;52.916;12.834;2022-11-23T03:50:48;62.33;;;28.95;;
29824;SDS011;16713;52.916;12.834;2022-11-23T03:53:15;60.90;;;28.77;;
29824;SDS011;16713;52.916;12.834;2022-11-23T03:55:41;56.40;;;26.80;;
29824;SDS011;16713;52.916;12.834;2022-11-23T03:58:07;56.22;;;28.50;;
29824;SDS011;16713;52.916;12.834;2022-11-23T04:00:34;60.53;;;27.45;;
29824;SDS011;16713;52.916;12.834;2022-11-23T04:03:00;61.38;;;28.42;;
29824;SDS011;16713;52.916;12.834;2022-11-23T04:05:27;61.35;;;28.83;;
29824;SDS011;16713;52.916;12.834;2022-11-23T04:07:53;58.55;;;27.50;;
29824;SDS011;16713;52.916;12.834;2022-11-23T04:10:20;58.15;;;26.48;;
29824;SDS011;16713;52.916;12.834;2022-11-23T04:12:52;55.95;;;27.40;;
29824;SDS011;16713;52.916;12.834;2022-11-23T04:15:19;60.13;;;28.30;;
29824;SDS011;16713;52.916;12.834;2022-11-23T04:17:45;59.17;;;28.50;;
29824;SDS011;16713;52.916;12.834;2022-11-23T04:20:12;65.88;;;30.00;;
29824;SDS011;16713;52.916;12.834;2022-11-23T04:22:39;58.88;;;27.05;;
29824;SDS011;16713;52.916;12.834;2022-11-23T04:25:06;60.97;;;28.40;;
29824;SDS011;16713;52.916;12.834;2022-11-23T04:27:33;67.38;;;29.10;;
29824;SDS011;16713;52.916;12.834;2022-11-23T04:29:59;59.22;;;27.30;;
29824;SDS011;16713;52.916;12.834;2022-11-23T04:32:26;61.50;;;28.35;;
29824;SDS011;16713;52.916;12.834;2022-11-23T04:34:52;51.80;;;26.55;;
29824;SDS011;16713;52.916;12.834;2022-11-23T04:37:19;62.50;;;27.80;;
29824;SDS011;16713;52.916;12.834;2022-11-23T04:39:45;53.08;;;24.67;;
29824;SDS011;16713;52.916;12.834;2022-11-23T04:42:12;56.70;;;26.65;;
29824;SDS011;16713;52.916;12.834;2022-11-23T04:44:39;66.38;;;28.98;;
29824;SDS011;16713;52.916;12.834;2022-11-23T04:47:05;57.78;;;25.30;;
29824;SDS011;16713;52.916;12.834;2022-11-23T04:49:32;59.03;;;26.98;;
29824;SDS011;16713;52.916;12.834;2022-11-23T04:51:59;54.80;;;26.48;;
29824;SDS011;16713;52.916;12.834;2022-11-23T04:54:25;54.58;;;28.77;;
29824;SDS011;16713;52.916;12.834;2022-11-23T04:56:52;56.78;;;26.40;;
29824;SDS011;16713;52.916;12.834;2022-11-23T04:59:19;61.95;;;26.98;;
29824;SDS011;16713;52.916;12.834;2022-11-23T05:01:47;58.47;;;27.00;;
29824;SDS011;16713;52.916;12.834;2022-11-23T05:04:14;55.70;;;27.15;;
29824;SDS011;16713;52.916;12.834;2022-11-23T05:06:43;51.33;;;24.73;;
29824;SDS011;16713;52.916;12.834;2022-11-23T05:09:10;53.80;;;26.45;;
29824;SDS011;16713;52.916;12.834;2022-11-23T05:11:36;55.05;;;27.17;;
29824;SDS011;16713;52.916;12.834;2022-11-23T05:14:03;53.92;;;26.30;;
29824;SDS011;16713;52.916;12.834;2022-11-23T05:16:30;51.75;;;25.65;;
29824;SDS011;16713;52.916;12.834;2022-11-23T05:18:56;57.20;;;27.10;;
29824;SDS011;16713;52.916;12.834;2022-11-23T05:21:22;58.30;;;27.20;;
29824;SDS011;16713;52.916;12.834;2022-11-23T05:23:49;52.97;;;25.30;;
29824;SDS011;16713;52.916;12.834;2022-11-23T05:26:15;57.00;;;27.17;;
29824;SDS011;16713;52.916;12.834;2022-11-23T05:28:42;51.17;;;25.13;;
29824;SDS011;16713;52.916;12.834;2022-11-23T05:31:08;50.60;;;24.15;;
29824;SDS011;16713;52.916;12.834;2022-11-23T05:33:35;49.30;;;25.58;;
29824;SDS011;16713;52.916;12.834;2022-11-23T05:36:02;65.00;;;26.48;;
29824;SDS011;16713;52.916;12.834;2022-11-23T05:38:28;52.90;;;25.13;;
29824;SDS011;16713;52.916;12.834;2022-11-23T05:40:55;50.80;;;24.60;;
29824;SDS011;16713;52.916;12.834;2022-11-23T05:43:21;48.63;;;25.08;;
29824;SDS011;16713;52.916;12.834;2022-11-23T05:45:48;53.30;;;23.40;;
29824;SDS011;16713;52.916;12.834;2022-11-23T05:48:14;54.35;;;25.67;;
29824;SDS011;16713;52.916;12.834;2022-11-23T05:50:41;52.00;;;26.02;;
29824;SDS011;16713;52.916;12.834;2022-11-23T05:53:07;53.20;;;24.60;;
29824;SDS011;16713;52.916;12.834;2022-11-23T05:55:35;61.38;;;26.35;;
29824;SDS011;16713;52.916;12.834;2022-11-23T05:58:01;54.70;;;25.90;;
29824;SDS011;16713;52.916;12.834;2022-11-23T06:00:28;54.60;;;25.63;;
29824;SDS011;16713;52.916;12.834;2022-11-23T06:02:59;50.67;;;25.08;;
29824;SDS011;16713;52.916;12.834;2022-11-23T06:05:27;52.33;;;24.33;;
29824;SDS011;16713;52.916;12.834;2022-11-23T06:07:54;51.25;;;25.27;;
29824;SDS011;16713;52.916;12.834;2022-11-23T06:10:21;46.90;;;24.48;;
29824;SDS011;16713;52.916;12.834;2022-11-23T06:12:48;53.28;;;25.10;;
29824;SDS011;16713;52.916;12.834;2022-11-23T06:15:15;50.35;;;23.10;;
29824;SDS011;16713;52.916;12.834;2022-11-23T06:17:43;51.50;;;25.30;;
29824;SDS011;16713;52.916;12.834;2022-11-23T06:20:09;51.35;;;24.48;;
29824;SDS011;16713;52.916;12.834;2022-11-23T06:22:36;47.13;;;23.65;;
29824;SDS011;16713;52.916;12.834;2022-11-23T06:25:02;47.13;;;23.33;;
29824;SDS011;16713;52.916;12.834;2022-11-23T06:27:29;49.40;;;25.73;;
29824;SDS011;16713;52.916;12.834;2022-11-23T06:29:55;49.92;;;24.67;;
29824;SDS011;16713;52.916;12.834;2022-11-23T06:32:22;54.65;;;25.58;;
29824;SDS011;16713;52.916;12.834;2022-11-23T06:34:48;54.05;;;24.98;;
29824;SDS011;16713;52.916;12.834;2022-11-23T06:37:15;56.22;;;25.85;;
29824;SDS011;16713;52.916;12.834;2022-11-23T06:39:41;53.75;;;25.92;;
29824;SDS011;16713;52.916;12.834;2022-11-23T06:42:08;57.45;;;27.20;;
29824;SDS011;16713;52.916;12.834;2022-11-23T06:44:54;55.78;;;26.33;;
29824;SDS011;16713;52.916;12.834;2022-11-23T06:47:21;48.00;;;24.35;;
29824;SDS011;16713;52.916;12.834;2022-11-23T06:49:51;53.88;;;24.15;;
29824;SDS011;16713;52.916;12.834;2022-11-23T06:52:18;46.53;;;23.58;;
29824;SDS011;16713;52.916;12.834;2022-11-23T06:54:45;49.80;;;24.67;;
29824;SDS011;16713;52.916;12.834;2022-11-23T06:57:11;56.55;;;25.88;;
29824;SDS011;16713;52.916;12.834;2022-11-23T06:59:38;46.55;;;23.13;;
29824;SDS011;16713;52.916;12.834;2022-11-23T07:02:10;47.45;;;22.63;;
29824;SDS011;16713;52.916;12.834;2022-11-23T07:04:37;45.35;;;23.85;;
29824;SDS011;16713;52.916;12.834;2022-11-23T07:07:03;53.33;;;25.48;;
29824;SDS011;16713;52.916;12.834;2022-11-23T07:09:30;53.55;;;24.98;;
29824;SDS011;16713;52.916;12.834;2022-11-23T07:11:57;53.25;;;24.23;;
29824;SDS011;16713;52.916;12.834;2022-11-23T07:14:23;49.42;;;23.88;;
29824;SDS011;16713;52.916;12.834;2022-11-23T07:16:50;53.60;;;26.48;;
29824;SDS011;16713;52.916;12.834;2022-11-23T07:19:16;51.17;;;25.45;;
29824;SDS011;16713;52.916;12.834;2022-11-23T07:21:43;45.70;;;23.05;;
29824;SDS011;16713;52.916;12.834;2022-11-23T07:24:10;50.72;;;25.80;;
29824;SDS011;16713;52.916;12.834;2022-11-23T07:26:37;54.55;;;26.50;;
29824;SDS011;16713;52.916;12.834;2022-11-23T07:29:03;54.38;;;26.52;;
29824;SDS011;16713;52.916;12.834;2022-11-23T07:31:30;53.53;;;27.08;;
29824;SDS011;16713;52.916;12.834;2022-11-23T07:33:56;51.13;;;23.70;;
29824;SDS011;16713;52.916;12.834;2022-11-23T07:36:23;49.88;;;24.23;;
29824;SDS011;16713;52.916;12.834;2022-11-23T07:38:49;55.50;;;24.58;;
29824;SDS011;16713;52.916;12.834;2022-11-23T07:41:16;56.83;;;24.52;;
29824;SDS011;16713;52.916;12.834;2022-11-23T07:43:42;53.40;;;24.27;;
29824;SDS011;16713;52.916;12.834;2022-11-23T07:46:09;46.58;;;22.60;;
29824;SDS011;16713;52.916;12.834;2022-11-23T07:48:35;53.80;;;24.45;;
29824;SDS011;16713;52.916;12.834;2022-11-23T07:51:02;51.33;;;25.27;;
29824;SDS011;16713;52.916;12.834;2022-11-23T07:53:28;50.88;;;25.13;;
29824;SDS011;16713;52.916;12.834;2022-11-23T07:55:56;46.50;;;22.08;;
29824;SDS011;16713;52.916;12.834;2022-11-23T07:58:25;52.17;;;25.00;;
29824;SDS011;16713;52.916;12.834;2022-11-23T08:00:52;41.13;;;22.02;;
29824;SDS011;16713;52.916;12.834;2022-11-23T08:03:18;54.80;;;24.15;;
29824;SDS011;16713;52.916;12.834;2022-11-23T08:05:53;51.03;;;22.67;;
29824;SDS011;16713;52.916;12.834;2022-11-23T08:08:19;43.20;;;22.48;;
29824;SDS011;16713;52.916;12.834;2022-11-23T08:10:46;44.97;;;22.42;;
29824;SDS011;16713;52.916;12.834;2022-11-23T08:13:18;51.53;;;25.17;;
29824;SDS011;16713;52.916;12.834;2022-11-23T08:15:46;49.65;;;24.35;;
29824;SDS011;16713;52.916;12.834;2022-11-23T08:18:20;45.92;;;23.27;;
29824;SDS011;16713;52.916;12.834;2022-11-23T08:20:46;45.67;;;24.00;;
29824;SDS011;16713;52.916;12.834;2022-11-23T08:23:13;44.80;;;22.65;;
29824;SDS011;16713;52.916;12.834;2022-11-23T08:25:39;52.67;;;22.83;;
29824;SDS011;16713;52.916;12.834;2022-11-23T08:28:06;51.97;;;24.00;;
29824;SDS011;16713;52.916;12.834;2022-11-23T08:30:32;47.67;;;23.23;;
29824;SDS011;16713;52.916;12.834;2022-11-23T08:33:05;48.05;;;21.70;;
29824;SDS011;16713;52.916;12.834;2022-11-23T08:35:33;46.95;;;22.60;;
29824;SDS011;16713;52.916;12.834;2022-11-23T08:38:02;47.65;;;23.05;;
29824;SDS011;16713;52.916;12.834;2022-11-23T08:40:29;48.45;;;23.38;;
29824;SDS011;16713;52.916;12.834;2022-11-23T08:42:56;46.92;;;21.65;;
29824;SDS011;16713;52.916;12.834;2022-11-23T08:45:22;47.08;;;22.33;;
29824;SDS011;16713;52.916;12.834;2022-11-23T08:47:49;48.75;;;21.95;;
29824;SDS011;16713;52.916;12.834;2022-11-23T08:50:16;43.58;;;22.27;;
29824;SDS011;16713;52.916;12.834;2022-11-23T08:52:43;54.03;;;25.80;;
29824;SDS011;16713;52.916;12.834;2022-11-23T08:55:09;56.60;;;27.35;;
29824;SDS011;16713;52.916;12.834;2022-11-23T08:57:36;51.25;;;25.27;;
29824;SDS011;16713;52.916;12.834;2022-11-23T09:00:04;45.17;;;22.80;;
29824;SDS011;16713;52.916;12.834;2022-11-23T09:02:30;44.55;;;22.30;;
29824;SDS011;16713;52.916;12.834;2022-11-23T09:04:57;43.67;;;22.75;;
29824;SDS011;16713;52.916;12.834;2022-11-23T09:07:23;45.13;;;22.25;;
29824;SDS011;16713;52.916;12.834;2022-11-23T09:09:50;43.95;;;23.15;;
29824;SDS011;16713;52.916;12.834;2022-11-23T09:12:16;42.33;;;21.70;;
29824;SDS011;16713;52.916;12.834;2022-11-23T09:14:43;41.20;;;21.23;;
29824;SDS011;16713;52.916;12.834;2022-11-23T09:17:09;43.97;;;22.60;;
29824;SDS011;16713;52.916;12.834;2022-11-23T09:19:36;47.03;;;23.30;;
29824;SDS011;16713;52.916;12.834;2022-11-23T09:22:02;45.80;;;22.65;;
29824;SDS011;16713;52.916;12.834;2022-11-23T09:24:28;36.72;;;22.45;;
29824;SDS011;16713;52.916;12.834;2022-11-23T09:26:55;39.92;;;21.00;;
29824;SDS011;16713;52.916;12.834;2022-11-23T09:29:22;38.67;;;21.27;;
29824;SDS011;16713;52.916;12.834;2022-11-23T09:31:50;44.78;;;22.25;;
29824;SDS011;16713;52.916;12.834;2022-11-23T09:34:16;41.90;;;21.63;;
29824;SDS011;16713;52.916;12.834;2022-11-23T09:36:43;43.97;;;20.77;;
29824;SDS011;16713;52.916;12.834;2022-11-23T09:39:10;41.65;;;21.30;;
29824;SDS011;16713;52.916;12.834;2022-11-23T09:47:24;42.85;;;21.30;;
29824;SDS011;16713;52.916;12.834;2022-11-23T09:49:59;42.35;;;20.15;;
29824;SDS011;16713;52.916;12.834;2022-11-23T09:52:28;41.55;;;20.92;;
29824;SDS011;16713;52.916;12.834;2022-11-23T09:54:56;38.78;;;21.75;;
29824;SDS011;16713;52.916;12.834;2022-11-23T09:57:29;41.45;;;20.70;;
29824;SDS011;16713;52.916;12.834;2022-11-23T10:02:54;37.95;;;20.58;;
29824;SDS011;16713;52.916;12.834;2022-11-23T10:05:21;37.08;;;21.33;;
29824;SDS011;16713;52.916;12.834;2022-11-23T10:10:40;43.10;;;22.08;;
29824;SDS011;16713;52.916;12.834;2022-11-23T10:24:45;36.67;;;20.88;;
29824;SDS011;16713;52.916;12.834;2022-11-23T10:27:16;36.75;;;20.05;;
29824;SDS011;16713;52.916;12.834;2022-11-23T10:29:45;37.42;;;20.05;;
29824;SDS011;16713;52.916;12.834;2022-11-23T10:32:24;39.65;;;19.58;;
29824;SDS011;16713;52.916;12.834;2022-11-23T10:35:01;37.15;;;20.08;;
29824;SDS011;16713;52.916;12.834;2022-11-23T10:37:29;42.78;;;21.27;;
29824;SDS011;16713;52.916;12.834;2022-11-23T10:39:57;36.55;;;19.52;;
29824;SDS011;16713;52.916;12.834;2022-11-23T10:42:27;40.60;;;21.98;;
29824;SDS011;16713;52.916;12.834;2022-11-23T10:44:57;37.00;;;21.13;;
29824;SDS011;16713;52.916;12.834;2022-11-23T10:47:33;43.63;;;23.67;;
29824;SDS011;16713;52.916;12.834;2022-11-23T10:50:26;40.53;;;22.15;;
29824;SDS011;16713;52.916;12.834;2022-11-23T10:52:54;38.78;;;20.67;;
29824;SDS011;16713;52.916;12.834;2022-11-23T10:55:24;38.53;;;20.10;;
29824;SDS011;16713;52.916;12.834;2022-11-23T10:57:53;41.50;;;20.10;;
29824;SDS011;16713;52.916;12.834;2022-11-23T11:00:21;34.85;;;19.58;;
29824;SDS011;16713;52.916;12.834;2022-11-23T11:02:56;34.97;;;20.05;;
29824;SDS011;16713;52.916;12.834;2022-11-23T11:05:28;40.10;;;20.30;;
29824;SDS011;16713;52.916;12.834;2022-11-23T11:08:18;42.58;;;20.70;;
29824;SDS011;16713;52.916;12.834;2022-11-23T11:10:56;38.70;;;19.95;;
29824;SDS011;16713;52.916;12.834;2022-11-23T11:13:25;37.55;;;20.50;;
29824;SDS011;16713;52.916;12.834;2022-11-23T11:16:45;38.03;;;19.80;;
29824;SDS011;16713;52.916;12.834;2022-11-23T11:19:20;37.47;;;19.63;;
29824;SDS011;16713;52.916;12.834;2022-11-23T11:22:02;41.42;;;19.05;;
29824;SDS011;16713;52.916;12.834;2022-11-23T11:24:49;37.20;;;20.35;;
29824;SDS011;16713;52.916;12.834;2022-11-23T11:27:19;36.40;;;19.15;;
29824;SDS011;16713;52.916;12.834;2022-11-23T11:29:49;39.10;;;20.73;;
29824;SDS011;16713;52.916;12.834;2022-11-23T11:32:29;42.97;;;21.85;;
29824;SDS011;16713;52.916;12.834;2022-11-23T11:35:21;40.83;;;20.05;;
29824;SDS011;16713;52.916;12.834;2022-11-23T11:37:54;35.35;;;19.88;;
29824;SDS011;16713;52.916;12.834;2022-11-23T11:40:27;40.67;;;20.15;;
29824;SDS011;16713;52.916;12.834;2022-11-23T11:45:28;49.35;;;24.42;;
29824;SDS011;16713;52.916;12.834;2022-11-23T11:48:07;45.75;;;22.48;;
29824;SDS011;16713;52.916;12.834;2022-11-23T11:50:49;36.17;;;19.30;;
29824;SDS011;16713;52.916;12.834;2022-11-23T11:56:23;37.88;;;20.23;;
29824;SDS011;16713;52.916;12.834;2022-11-23T11:59:02;38.83;;;21.20;;
29824;SDS011;16713;52.916;12.834;2022-11-23T12:04:26;35.75;;;19.70;;
29824;SDS011;16713;52.916;12.834;2022-11-23T12:09:36;34.45;;;19.02;;
29824;SDS011;16713;52.916;12.834;2022-11-23T12:12:11;33.33;;;18.75;;
29824;SDS011;16713;52.916;12.834;2022-11-23T12:14:41;36.20;;;20.02;;
29824;SDS011;16713;52.916;12.834;2022-11-23T12:17:19;38.47;;;19.38;;
29824;SDS011;16713;52.916;12.834;2022-11-23T12:25:47;44.30;;;19.38;;
29824;SDS011;16713;52.916;12.834;2022-11-23T12:34:42;34.08;;;17.95;;
29824;SDS011;16713;52.916;12.834;2022-11-23T12:45:39;37.90;;;19.58;;
29824;SDS011;16713;52.916;12.834;2022-11-23T12:53:32;37.35;;;19.45;;
29824;SDS011;16713;52.916;12.834;2022-11-23T12:59:12;38.78;;;19.33;;
29824;SDS011;16713;52.916;12.834;2022-11-23T13:01:44;34.78;;;19.08;;
29824;SDS011;16713;52.916;12.834;2022-11-23T13:07:22;35.10;;;18.45;;
29824;SDS011;16713;52.916;12.834;2022-11-23T13:18:54;35.65;;;18.67;;
29824;SDS011;16713;52.916;12.834;2022-11-23T13:21:38;35.25;;;19.05;;
29824;SDS011;16713;52.916;12.834;2022-11-23T13:27:40;37.88;;;20.38;;
29824;SDS011;16713;52.916;12.834;2022-11-23T13:29:57;39.88;;;20.30;;
29824;SDS011;16713;52.916;12.834;2022-11-23T13:40:20;37.65;;;19.08;;
29824;SDS011;16713;52.916;12.834;2022-11-23T13:42:47;35.42;;;18.45;;
29824;SDS011;16713;52.916;12.834;2022-11-23T13:45:21;34.58;;;19.05;;
29824;SDS011;16713;52.916;12.834;2022-11-23T13:48:37;41.95;;;20.55;;
29824;SDS011;16713;52.916;12.834;2022-11-23T13:51:04;39.67;;;20.17;;
29824;SDS011;16713;52.916;12.834;2022-11-23T13:53:40;48.50;;;24.20;;
29824;SDS011;16713;52.916;12.834;2022-11-23T13:56:22;49.50;;;24.58;;
29824;SDS011;16713;52.916;12.834;2022-11-23T13:58:55;40.08;;;19.95;;
29824;SDS011;16713;52.916;12.834;2022-11-23T14:04:46;37.60;;;18.77;;
29824;SDS011;16713;52.916;12.834;2022-11-23T14:07:23;33.92;;;19.33;;
29824;SDS011;16713;52.916;12.834;2022-11-23T14:10:00;36.17;;;19.30;;
29824;SDS011;16713;52.916;12.834;2022-11-23T14:12:48;36.67;;;19.35;;
29824;SDS011;16713;52.916;12.834;2022-11-23T14:15:34;34.20;;;18.40;;
29824;SDS011;16713;52.916;12.834;2022-11-23T14:21:11;36.35;;;19.48;;
29824;SDS011;16713;52.916;12.834;2022-11-23T14:39:53;38.88;;;19.50;;
29824;SDS011;16713;52.916;12.834;2022-11-23T14:42:28;35.78;;;20.27;;
29824;SDS011;16713;52.916;12.834;2022-11-23T14:44:57;35.95;;;20.20;;
29824;SDS011;16713;52.916;12.834;2022-11-23T14:47:29;33.42;;;19.95;;
29824;SDS011;16713;52.916;12.834;2022-11-23T14:49:57;39.83;;;20.55;;
29824;SDS011;16713;52.916;12.834;2022-11-23T14:52:27;39.08;;;19.63;;
29824;SDS011;16713;52.916;12.834;2022-11-23T14:54:57;35.05;;;19.48;;
29824;SDS011;16713;52.916;12.834;2022-11-23T14:57:42;41.03;;;19.95;;
29824;SDS011;16713;52.916;12.834;2022-11-23T15:00:34;37.97;;;19.05;;
29824;SDS011;16713;52.916;12.834;2022-11-23T15:03:12;36.30;;;20.27;;
29824;SDS011;16713;52.916;12.834;2022-11-23T15:06:06;35.30;;;18.30;;
29824;SDS011;16713;52.916;12.834;2022-11-23T15:08:43;33.38;;;19.48;;
29824;SDS011;16713;52.916;12.834;2022-11-23T15:11:22;36.08;;;17.83;;
29824;SDS011;16713;52.916;12.834;2022-11-23T15:13:52;37.38;;;18.92;;
29824;SDS011;16713;52.916;12.834;2022-11-23T15:16:37;32.55;;;18.60;;
29824;SDS011;16713;52.916;12.834;2022-11-23T15:19:18;39.10;;;19.35;;
29824;SDS011;16713;52.916;12.834;2022-11-23T15:21:53;36.05;;;18.33;;
29824;SDS011;16713;52.916;12.834;2022-11-23T15:24:26;39.33;;;19.08;;
29824;SDS011;16713;52.916;12.834;2022-11-23T15:27:02;34.05;;;17.88;;
29824;SDS011;16713;52.916;12.834;2022-11-23T15:29:37;31.60;;;18.17;;
29824;SDS011;16713;52.916;12.834;2022-11-23T15:32:21;34.17;;;18.52;;
29824;SDS011;16713;52.916;12.834;2022-11-23T15:35:02;34.83;;;19.55;;
29824;SDS011;16713;52.916;12.834;2022-11-23T15:37:32;32.92;;;17.75;;
29824;SDS011;16713;52.916;12.834;2022-11-23T15:40:10;35.33;;;18.38;;
29824;SDS011;16713;52.916;12.834;2022-11-23T15:42:38;38.28;;;18.45;;
29824;SDS011;16713;52.916;12.834;2022-11-23T15:45:31;35.22;;;18.08;;
29824;SDS011;16713;52.916;12.834;2022-11-23T15:47:59;30.00;;;16.98;;
29824;SDS011;16713;52.916;12.834;2022-11-23T15:50:30;31.13;;;18.55;;
29824;SDS011;16713;52.916;12.834;2022-11-23T15:52:59;31.73;;;18.35;;
29824;SDS011;16713;52.916;12.834;2022-11-23T15:55:27;33.53;;;18.15;;
29824;SDS011;16713;52.916;12.834;2022-11-23T15:57:55;34.60;;;18.55;;
29824;SDS011;16713;52.916;12.834;2022-11-23T16:00:23;33.28;;;18.20;;
29824;SDS011;16713;52.916;12.834;2022-11-23T16:02:51;31.77;;;17.67;;
29824;SDS011;16713;52.916;12.834;2022-11-23T16:05:21;33.80;;;18.02;;
29824;SDS011;16713;52.916;12.834;2022-11-23T16:07:55;33.37;;;18.30;;
29824;SDS011;16713;52.916;12.834;2022-11-23T16:10:27;33.42;;;18.35;;
29824;SDS011;16713;52.916;12.834;2022-11-23T16:12:59;36.67;;;19.33;;
29824;SDS011;16713;52.916;12.834;2022-11-23T16:18:23;33.55;;;18.65;;
29824;SDS011;16713;52.916;12.834;2022-11-23T16:20:52;35.33;;;19.02;;
29824;SDS011;16713;52.916;12.834;2022-11-23T16:23:25;37.80;;;18.23;;
29824;SDS011;16713;52.916;12.834;2022-11-23T16:25:55;35.08;;;18.67;;
29824;SDS011;16713;52.916;12.834;2022-11-23T16:28:33;31.57;;;18.13;;
29824;SDS011;16713;52.916;12.834;2022-11-23T16:31:03;33.60;;;18.55;;